This is the latest recevied weather packets stored in our database for station/object WP3OF-5. If no packets are shown the sender has not sent any weather packets the latest 10 day(s).
| Time | Temp. | Humidity | Pressure | Rain* | Wind** | Luminosity | Snow |
|---|---|---|---|---|---|---|---|
| 1777739567 | 30.56° C | 63% | 1016.2 hPa | 0 mm | - | - | - |
| 1777739264 | 30.56° C | 62% | 1016.3 hPa | 0 mm | - | - | - |
| 1777738960 | 30.56° C | 62% | 1016.2 hPa | 0 mm | - | - | - |
| 1777738657 | 31.67° C | 59% | 1016.2 hPa | 0 mm | - | - | - |
| 1777738353 | 30.56° C | 62% | 1016.6 hPa | 0 mm | - | - | - |
| 1777738052 | 30.56° C | 62% | 1016.6 hPa | 0 mm | - | - | - |
| 1777737751 | 30.56° C | 63% | 1016.6 hPa | 0 mm | - | - | - |
| 1777737449 | 31.11° C | 61% | 1016.8 hPa | 0 mm | - | - | - |
| 1777737147 | 31.11° C | 60% | 1016.7 hPa | 0 mm | - | - | - |
| 1777736842 | 31.11° C | 62% | 1017 hPa | 0 mm | - | - | - |
| 1777736223 | 30.56° C | 65% | 1017.1 hPa | 0 mm | - | - | - |
| 1777735920 | 30.56° C | 65% | 1017 hPa | 0 mm | - | - | - |
| 1777735617 | 30.56° C | 62% | 1017.3 hPa | 0 mm | - | - | - |
| 1777735314 | 30.56° C | 64% | 1017.2 hPa | 0 mm | - | - | - |
| 1777735012 | 30° C | 66% | 1017.5 hPa | 0 mm | - | - | - |
| 1777734709 | 30° C | 64% | 1017.3 hPa | 0 mm | - | - | - |
| 1777734407 | 30° C | 65% | 1017.4 hPa | 0 mm | - | - | - |
| 1777734103 | 30° C | 65% | 1017.4 hPa | 0 mm | - | - | - |
| 1777733799 | 29.44° C | 67% | 1017.5 hPa | 0 mm | - | - | - |
| 1777733496 | 29.44° C | 65% | 1017.6 hPa | 0 mm | - | - | - |
| 1777733192 | 29.44° C | 67% | 1017.5 hPa | 0 mm | - | - | - |
| 1777732889 | 29.44° C | 68% | 1017.6 hPa | 0 mm | - | - | - |
| 1777732586 | 28.89° C | 70% | 1017.6 hPa | 0 mm | - | - | - |
| 1777732283 | 28.89° C | 70% | 1017.6 hPa | 0 mm | - | - | - |
| 1777731980 | 29.44° C | 69% | 1017.5 hPa | 0 mm | - | - | - |
* Rain latest hour (hover to see other rain measurements)
** Current wind speed in m/s (hover to see current wind gust speed)